createdAt,value
2022-10-04T00:01:01.614Z,5.30
2022-10-04T00:03:33.890Z,5.63
2022-10-04T00:06:03.623Z,4.43
2022-10-04T00:08:42.032Z,4.80
2022-10-04T00:11:16.677Z,5.63
2022-10-04T00:13:50.389Z,4.53
2022-10-04T00:16:29.857Z,4.28
2022-10-04T00:19:41.946Z,4.38
2022-10-04T00:22:17.342Z,3.35
2022-10-04T00:25:22.529Z,3.88
2022-10-04T00:28:24.462Z,3.75
2022-10-04T00:31:25.642Z,3.85
2022-10-04T00:33:56.226Z,3.38
2022-10-04T00:36:47.282Z,3.80
2022-10-04T00:39:18.388Z,3.40
2022-10-04T00:41:58.373Z,3.25
2022-10-04T00:44:34.287Z,2.97
2022-10-04T00:47:14.172Z,2.47
2022-10-04T00:49:46.850Z,3.00
2022-10-04T00:52:44.112Z,2.88
2022-10-04T00:57:50.452Z,2.58
2022-10-04T01:00:22.547Z,2.42
2022-10-04T01:02:57.884Z,2.80
2022-10-04T01:05:29.200Z,3.05
2022-10-04T01:08:07.465Z,2.88
2022-10-04T01:10:41.880Z,2.60
2022-10-04T01:13:14.144Z,2.50
2022-10-04T01:15:46.394Z,2.37
2022-10-04T01:18:28.278Z,2.90
2022-10-04T01:20:59.868Z,2.67
2022-10-04T01:23:41.662Z,2.97
2022-10-04T01:26:42.505Z,2.85
2022-10-04T01:29:15.296Z,2.97
2022-10-04T01:31:46.467Z,2.97
2022-10-04T01:34:17.071Z,3.25
2022-10-04T01:36:46.162Z,3.17
2022-10-04T01:39:16.879Z,3.33
2022-10-04T01:41:49.812Z,2.75
2022-10-04T01:44:27.331Z,2.83
2022-10-04T01:46:59.451Z,3.30
2022-10-04T01:49:32.406Z,2.73
2022-10-04T01:52:06.300Z,2.57
2022-10-04T01:54:39.429Z,3.50
2022-10-04T01:57:15.117Z,3.08
2022-10-04T01:59:47.662Z,2.80
2022-10-04T02:02:25.927Z,2.50
2022-10-04T02:04:56.988Z,2.55
2022-10-04T02:07:26.572Z,3.20
2022-10-04T02:10:00.487Z,2.85
2022-10-04T02:12:31.430Z,2.60
2022-10-04T02:15:02.303Z,3.17
2022-10-04T02:17:33.167Z,3.00
2022-10-04T02:20:03.021Z,2.27
2022-10-04T02:22:31.824Z,2.78
2022-10-04T02:25:01.857Z,2.95
2022-10-04T02:27:31.587Z,3.05
2022-10-04T02:30:04.814Z,2.90
2022-10-04T02:32:52.162Z,2.60
2022-10-04T02:35:21.388Z,2.40
2022-10-04T02:37:55.461Z,2.70
2022-10-04T02:40:34.821Z,2.70
2022-10-04T02:43:08.946Z,2.65
2022-10-04T02:45:44.194Z,2.03
2022-10-04T02:48:31.067Z,3.40
2022-10-04T02:51:08.240Z,2.57
2022-10-04T02:53:50.497Z,2.60
2022-10-04T02:56:22.248Z,2.70
2022-10-04T02:58:50.483Z,2.80
2022-10-04T03:01:27.478Z,2.30
2022-10-04T03:03:57.617Z,2.70
2022-10-04T03:06:32.301Z,2.70
2022-10-04T03:09:03.290Z,2.13
2022-10-04T03:11:36.586Z,2.47
2022-10-04T03:14:09.140Z,2.63
2022-10-04T03:16:40.133Z,2.90
2022-10-04T03:19:09.992Z,2.55
2022-10-04T03:21:40.679Z,2.20
2022-10-04T03:24:11.278Z,3.00
2022-10-04T03:26:45.416Z,2.10
2022-10-04T03:29:17.320Z,2.20
2022-10-04T03:31:47.615Z,2.80
2022-10-04T03:34:18.105Z,2.47
2022-10-04T03:36:49.213Z,2.97
2022-10-04T03:39:32.757Z,2.78
2022-10-04T03:42:05.993Z,3.13
2022-10-04T03:44:34.837Z,2.92
2022-10-04T03:47:08.247Z,3.30
2022-10-04T03:49:38.857Z,3.47
2022-10-04T03:52:09.001Z,2.97
2022-10-04T03:54:37.658Z,3.50
2022-10-04T03:57:07.613Z,3.08
2022-10-04T03:59:37.483Z,3.00
2022-10-04T04:02:13.432Z,3.55
2022-10-04T04:04:45.921Z,3.10
2022-10-04T04:07:19.926Z,3.67
2022-10-04T04:09:53.124Z,3.25
2022-10-04T04:15:31.249Z,3.47
2022-10-04T04:18:02.839Z,3.90
2022-10-04T04:20:34.310Z,3.80
2022-10-04T04:23:06.349Z,3.35
2022-10-04T04:25:38.402Z,3.42
2022-10-04T04:28:15.513Z,3.42
2022-10-04T04:30:48.263Z,3.05
2022-10-04T04:33:23.100Z,3.92
2022-10-04T04:35:56.454Z,3.58
2022-10-04T04:38:25.637Z,3.65
2022-10-04T04:40:55.696Z,3.88
2022-10-04T04:43:28.614Z,3.80
2022-10-04T04:46:22.257Z,3.88
2022-10-04T04:48:48.091Z,4.60
2022-10-04T04:51:21.769Z,3.85
2022-10-04T04:53:51.155Z,4.15
2022-10-04T04:56:21.832Z,4.32
2022-10-04T04:58:53.122Z,4.43
2022-10-04T05:01:25.144Z,4.55
2022-10-04T05:04:04.682Z,4.03
2022-10-04T05:06:34.190Z,3.70
2022-10-04T05:09:02.881Z,5.78
2022-10-04T05:11:33.751Z,5.30
2022-10-04T05:14:07.306Z,5.07
2022-10-04T05:16:41.540Z,5.15
2022-10-04T05:19:15.880Z,4.80
2022-10-04T05:21:46.813Z,3.75
2022-10-04T05:24:22.471Z,4.55
2022-10-04T05:26:52.316Z,4.78
2022-10-04T05:29:25.914Z,4.47
2022-10-04T05:32:04.224Z,3.53
2022-10-04T05:34:39.379Z,4.80
2022-10-04T05:37:30.307Z,4.40
2022-10-04T05:40:17.299Z,4.70
2022-10-04T05:42:46.852Z,5.00
2022-10-04T05:45:19.917Z,4.63
2022-10-04T05:47:51.255Z,4.32
2022-10-04T05:50:21.837Z,4.65
2022-10-04T05:52:52.482Z,4.35
2022-10-04T05:55:28.584Z,5.25
2022-10-04T06:01:13.829Z,4.65
2022-10-04T06:03:58.246Z,4.50
2022-10-04T06:06:35.155Z,4.70
2022-10-04T06:09:16.091Z,5.22
2022-10-04T06:12:01.137Z,5.32
2022-10-04T06:14:46.439Z,5.28
2022-10-04T06:17:40.667Z,5.07
2022-10-04T06:20:34.394Z,5.38
2022-10-04T06:23:07.853Z,5.20
2022-10-04T06:25:41.508Z,5.45
2022-10-04T06:28:19.600Z,5.32
2022-10-04T06:31:11.341Z,5.32
2022-10-04T06:33:55.269Z,4.93
2022-10-04T06:36:39.009Z,5.63
2022-10-04T06:39:21.347Z,5.60
2022-10-04T06:42:19.684Z,5.13
2022-10-04T06:45:06.097Z,5.75
2022-10-04T06:47:51.633Z,5.43
2022-10-04T06:50:29.767Z,6.32
2022-10-04T06:53:19.162Z,5.60
2022-10-04T06:56:16.084Z,5.65
2022-10-04T06:59:21.207Z,5.80
2022-10-04T07:01:52.651Z,5.57
2022-10-04T07:04:55.849Z,4.75
2022-10-04T07:07:35.441Z,5.63
2022-10-04T07:10:22.828Z,5.55
2022-10-04T07:12:59.965Z,5.30
2022-10-04T07:15:33.173Z,5.47
2022-10-04T07:18:07.190Z,5.75
2022-10-04T07:20:36.830Z,5.30
2022-10-04T07:23:09.976Z,4.88
2022-10-04T07:25:45.817Z,4.82
2022-10-04T07:28:36.023Z,5.57
2022-10-04T07:31:06.794Z,4.90
2022-10-04T07:33:43.450Z,4.20
2022-10-04T07:36:13.757Z,4.97
2022-10-04T07:38:49.849Z,4.85
2022-10-04T07:43:56.110Z,5.35
2022-10-04T07:46:43.783Z,5.18
2022-10-04T07:49:16.439Z,5.13
2022-10-04T07:52:08.902Z,5.75
2022-10-04T07:54:45.255Z,5.10
2022-10-04T07:57:23.555Z,5.38
2022-10-04T08:00:01.269Z,5.50
2022-10-04T08:02:50.604Z,5.75
2022-10-04T08:05:24.368Z,5.78
2022-10-04T08:08:32.591Z,5.38
2022-10-04T08:11:17.326Z,4.88
2022-10-04T08:13:58.067Z,6.30
2022-10-04T08:16:37.037Z,5.65
2022-10-04T08:19:33.292Z,5.40
2022-10-04T08:22:07.685Z,5.47
2022-10-04T08:24:47.971Z,5.95
2022-10-04T08:27:40.433Z,6.07
2022-10-04T08:30:14.944Z,6.43
2022-10-04T08:33:01.693Z,5.45
2022-10-04T08:38:25.468Z,5.25
2022-10-04T08:41:18.368Z,5.57
2022-10-04T08:44:13.252Z,5.78
2022-10-04T08:47:18.750Z,5.68
2022-10-04T08:50:22.790Z,6.28
2022-10-04T08:53:10.778Z,5.20
2022-10-04T08:55:51.750Z,5.82
2022-10-04T08:58:49.573Z,6.20
2022-10-04T09:01:39.779Z,5.57
2022-10-04T09:05:11.326Z,5.82
2022-10-04T09:08:17.380Z,5.80
2022-10-04T09:10:59.833Z,6.47
2022-10-04T09:13:41.258Z,5.70
2022-10-04T09:16:20.068Z,6.50
2022-10-04T09:19:14.304Z,6.40
2022-10-04T09:22:01.193Z,6.13
2022-10-04T09:24:58.609Z,5.82
2022-10-04T09:27:54.894Z,6.15
2022-10-04T09:30:31.082Z,6.10
2022-10-04T09:33:37.654Z,6.00
2022-10-04T09:36:28.574Z,6.00
2022-10-04T09:39:29.413Z,5.95
2022-10-04T09:42:29.274Z,5.88
2022-10-04T09:45:18.001Z,5.65
2022-10-04T09:47:48.518Z,6.07
2022-10-04T09:50:37.250Z,6.15
2022-10-04T09:53:25.267Z,6.22
2022-10-04T09:56:10.072Z,5.75
2022-10-04T09:59:03.899Z,5.47
2022-10-04T10:01:41.106Z,6.22
2022-10-04T10:04:35.444Z,5.78
2022-10-04T10:07:19.478Z,6.00
2022-10-04T10:10:31.332Z,5.45
2022-10-04T10:13:35.267Z,6.25
2022-10-04T10:16:12.244Z,6.35
2022-10-04T10:19:17.888Z,6.75
2022-10-04T10:21:56.324Z,7.93
2022-10-04T10:24:44.490Z,7.25
2022-10-04T10:27:43.072Z,6.70
2022-10-04T10:30:25.679Z,6.25
2022-10-04T10:33:46.881Z,6.55
2022-10-04T10:36:44.972Z,6.68
2022-10-04T10:39:38.843Z,6.63
2022-10-04T10:42:27.262Z,5.75
2022-10-04T10:45:23.943Z,6.57
2022-10-04T10:47:59.760Z,5.45
2022-10-04T10:50:59.422Z,6.18
2022-10-04T10:54:15.976Z,5.57
2022-10-04T10:56:47.809Z,7.38
2022-10-04T11:00:05.717Z,5.63
2022-10-04T11:03:31.126Z,5.85
2022-10-04T11:06:35.824Z,5.55
2022-10-04T11:09:34.961Z,4.80
2022-10-04T11:12:25.548Z,5.47
2022-10-04T11:15:34.278Z,3.83
2022-10-04T11:18:40.841Z,4.47
2022-10-04T11:21:28.897Z,3.78
2022-10-04T11:24:29.846Z,4.10
2022-10-04T11:27:28.365Z,3.97
2022-10-04T11:30:09.618Z,3.90
2022-10-04T11:33:10.201Z,3.70
2022-10-04T11:36:08.192Z,4.80
2022-10-04T11:38:53.364Z,4.03
2022-10-04T11:41:30.866Z,3.92
2022-10-04T11:44:29.381Z,3.58
2022-10-04T11:47:03.555Z,4.35
2022-10-04T11:49:56.563Z,3.58
2022-10-04T11:52:49.939Z,3.65
2022-10-04T11:55:43.168Z,7.90
2022-10-04T11:58:18.395Z,7.25
2022-10-04T12:01:21.425Z,3.72
2022-10-04T12:04:09.605Z,5.20
2022-10-04T12:06:51.687Z,3.85
2022-10-04T12:09:29.698Z,3.38
2022-10-04T12:12:39.904Z,2.60
2022-10-04T12:15:41.472Z,2.20
2022-10-04T12:18:34.433Z,2.53
2022-10-04T12:21:31.550Z,2.00
2022-10-04T12:24:16.090Z,1.60
2022-10-04T12:27:10.488Z,1.95
2022-10-04T12:30:23.886Z,1.80
2022-10-04T12:33:03.504Z,1.80
2022-10-04T12:35:43.198Z,1.88
2022-10-04T12:38:29.244Z,1.42
2022-10-04T12:41:12.065Z,1.38
2022-10-04T12:43:51.030Z,1.40
2022-10-04T12:46:31.499Z,1.50
2022-10-04T12:49:16.819Z,1.48
2022-10-04T12:51:56.343Z,1.40
2022-10-04T12:54:39.152Z,1.10
2022-10-04T12:57:34.557Z,1.10
2022-10-04T13:00:14.269Z,1.08
2022-10-04T13:03:11.944Z,1.13
2022-10-04T13:05:53.641Z,0.80
2022-10-04T13:08:32.534Z,1.10
2022-10-04T13:11:29.362Z,0.80
2022-10-04T13:14:26.881Z,1.25
2022-10-04T13:19:57.659Z,1.17
2022-10-04T13:22:56.467Z,1.00
2022-10-04T13:25:46.353Z,1.23
2022-10-04T13:28:24.538Z,0.95
2022-10-04T13:31:01.529Z,0.70
2022-10-04T13:33:37.507Z,0.70
2022-10-04T13:38:54.646Z,0.90
2022-10-04T13:41:33.928Z,0.90
2022-10-04T13:44:21.639Z,1.13
2022-10-04T13:47:07.623Z,0.95
2022-10-04T13:49:52.571Z,0.90
2022-10-04T13:52:56.189Z,2.83
2022-10-04T13:55:50.591Z,1.65
2022-10-04T13:58:35.533Z,1.77
2022-10-04T14:01:36.810Z,0.70
2022-10-04T14:04:21.110Z,0.50
2022-10-04T14:07:24.814Z,0.50
2022-10-04T14:10:03.224Z,1.45
2022-10-04T14:12:54.590Z,0.68
2022-10-04T14:16:01.349Z,0.60
2022-10-04T14:19:08.734Z,0.63
2022-10-04T14:22:07.378Z,0.93
2022-10-04T14:25:21.666Z,0.35
2022-10-04T14:28:22.311Z,0.50
2022-10-04T14:31:04.294Z,0.73
2022-10-04T14:34:02.917Z,0.30
2022-10-04T14:36:54.768Z,0.60
2022-10-04T14:39:39.537Z,0.40
2022-10-04T14:42:23.828Z,0.52
2022-10-04T14:45:18.953Z,0.55
2022-10-04T14:48:12.318Z,0.63
2022-10-04T14:50:51.674Z,0.47
2022-10-04T14:53:29.138Z,0.70
2022-10-04T14:56:20.847Z,0.50
2022-10-04T14:59:00.120Z,0.40
2022-10-04T15:01:29.617Z,0.40
2022-10-04T15:04:21.866Z,0.60
2022-10-04T15:06:52.204Z,0.38
2022-10-04T15:09:45.984Z,0.60
2022-10-04T15:13:09.323Z,0.32
2022-10-04T15:15:50.239Z,0.40
2022-10-04T15:18:39.080Z,0.77
2022-10-04T15:21:21.442Z,0.50
2022-10-04T15:23:54.043Z,0.40
2022-10-04T15:27:05.007Z,0.50
2022-10-04T15:29:44.511Z,0.50
2022-10-04T15:34:59.179Z,0.85
2022-10-04T15:37:41.070Z,0.60
2022-10-04T15:40:22.991Z,0.45
2022-10-04T15:43:02.575Z,0.57
2022-10-04T15:45:53.888Z,0.73
2022-10-04T15:48:50.618Z,0.60
2022-10-04T15:54:05.775Z,0.40
2022-10-04T15:56:48.287Z,0.98
2022-10-04T15:59:35.456Z,0.45
2022-10-04T16:02:38.918Z,0.35
2022-10-04T16:05:24.195Z,0.70
2022-10-04T16:08:28.593Z,0.80
2022-10-04T16:11:36.623Z,0.60
2022-10-04T16:14:33.263Z,0.70
2022-10-04T16:17:28.556Z,0.50
2022-10-04T16:20:28.941Z,0.77
2022-10-04T16:23:24.219Z,1.27
2022-10-04T16:25:53.234Z,0.70
2022-10-04T16:28:36.596Z,0.90
2022-10-04T16:31:22.728Z,0.95
2022-10-04T16:34:01.913Z,0.80
2022-10-04T16:36:47.535Z,1.08
2022-10-04T16:39:51.592Z,0.88
2022-10-04T16:42:23.810Z,0.88
2022-10-04T16:44:55.907Z,1.02
2022-10-04T16:47:28.333Z,1.13
2022-10-04T16:49:59.394Z,0.90
2022-10-04T16:52:48.189Z,1.02
2022-10-04T16:55:44.279Z,0.95
2022-10-04T16:58:44.933Z,1.10
2022-10-04T17:01:56.684Z,0.90
2022-10-04T17:04:55.433Z,0.80
2022-10-04T17:07:37.190Z,0.90
2022-10-04T17:10:21.127Z,0.73
2022-10-04T17:12:56.579Z,0.80
2022-10-04T17:15:34.859Z,1.23
2022-10-04T17:18:19.510Z,1.10
2022-10-04T17:20:55.462Z,1.20
2022-10-04T17:23:40.125Z,1.00
2022-10-04T17:26:20.191Z,1.10
2022-10-04T17:28:56.681Z,1.45
2022-10-04T17:31:33.523Z,1.40
2022-10-04T17:34:12.701Z,1.00
2022-10-04T17:36:43.741Z,1.00
2022-10-04T17:39:44.376Z,0.90
2022-10-04T17:42:31.915Z,1.00
2022-10-04T17:45:23.368Z,0.98
2022-10-04T17:48:19.011Z,0.88
2022-10-04T17:51:13.514Z,1.45
2022-10-04T17:54:04.009Z,1.25
2022-10-04T17:56:37.016Z,1.42
2022-10-04T17:59:13.066Z,1.30
2022-10-04T18:01:46.364Z,1.20
2022-10-04T18:04:20.887Z,1.20
2022-10-04T18:06:55.567Z,1.00
2022-10-04T18:09:30.135Z,1.25
2022-10-04T18:12:03.077Z,1.63
2022-10-04T18:14:59.366Z,2.22
2022-10-04T18:17:33.082Z,2.25
2022-10-04T18:20:27.726Z,2.50
2022-10-04T18:23:02.080Z,2.05
2022-10-04T18:25:33.839Z,2.42
2022-10-04T18:28:06.822Z,10.60
2022-10-04T18:30:53.825Z,14.35
2022-10-04T18:33:26.681Z,14.77
2022-10-04T18:36:04.408Z,11.35
2022-10-04T18:38:34.972Z,8.82
2022-10-04T18:41:13.067Z,7.15
2022-10-04T18:43:50.681Z,6.30
2022-10-04T18:46:22.068Z,5.00
2022-10-04T18:48:55.725Z,6.85
2022-10-04T18:51:29.618Z,8.93
2022-10-04T18:54:21.364Z,8.88
2022-10-04T18:56:57.186Z,7.60
2022-10-04T18:59:56.617Z,7.63
2022-10-04T19:02:36.236Z,7.15
2022-10-04T19:05:14.144Z,6.50
2022-10-04T19:07:51.419Z,5.40
2022-10-04T19:10:25.956Z,3.88
2022-10-04T19:13:10.852Z,3.75
2022-10-04T19:16:13.030Z,2.97
2022-10-04T19:19:07.800Z,2.22
2022-10-04T19:21:46.421Z,2.05
2022-10-04T19:24:45.122Z,2.33
2022-10-04T19:27:23.502Z,1.90
2022-10-04T19:30:03.405Z,2.17
2022-10-04T19:32:39.700Z,2.22
2022-10-04T19:35:22.139Z,1.95
2022-10-04T19:37:58.099Z,2.25
2022-10-04T19:40:35.925Z,3.90
2022-10-04T19:43:08.890Z,3.78
2022-10-04T19:45:45.552Z,2.58
2022-10-04T19:48:23.478Z,3.28
2022-10-04T19:51:02.214Z,3.35
2022-10-04T19:53:38.008Z,3.40
2022-10-04T19:56:15.627Z,2.97
2022-10-04T19:58:45.481Z,2.90
2022-10-04T20:01:14.414Z,2.65
2022-10-04T20:03:42.611Z,1.83
2022-10-04T20:06:21.324Z,1.92
2022-10-04T20:09:01.496Z,2.10
2022-10-04T20:11:49.537Z,1.75
2022-10-04T20:14:44.915Z,1.88
2022-10-04T20:17:32.832Z,2.55
2022-10-04T20:20:01.226Z,2.00
2022-10-04T20:22:54.991Z,2.38
2022-10-04T20:26:00.458Z,2.67
2022-10-04T20:28:41.581Z,2.55
2022-10-04T20:31:10.802Z,3.10
2022-10-04T20:33:49.942Z,3.03
2022-10-04T20:36:52.957Z,2.50
2022-10-04T20:40:00.813Z,2.80
2022-10-04T20:42:35.932Z,5.00
2022-10-04T20:45:22.357Z,4.00
2022-10-04T20:47:51.651Z,4.20
2022-10-04T20:50:31.368Z,3.92
2022-10-04T20:53:01.988Z,4.85
2022-10-04T20:55:32.227Z,3.90
2022-10-04T20:58:03.948Z,5.15
2022-10-04T21:00:35.038Z,4.90
2022-10-04T21:03:13.761Z,3.55
2022-10-04T21:05:42.222Z,3.45
2022-10-04T21:08:14.407Z,3.53
2022-10-04T21:11:24.132Z,3.28
2022-10-04T21:14:25.667Z,3.45
2022-10-04T21:16:59.917Z,3.05
2022-10-04T21:19:45.832Z,3.10
2022-10-04T21:22:39.860Z,3.53
2022-10-04T21:25:32.872Z,3.05
2022-10-04T21:28:23.526Z,3.40
2022-10-04T21:30:53.021Z,3.40
2022-10-04T21:33:20.933Z,3.50
2022-10-04T21:35:51.353Z,3.25
2022-10-04T21:38:19.331Z,3.58
2022-10-04T21:40:47.323Z,3.33
2022-10-04T21:43:15.315Z,3.92
2022-10-04T21:45:43.487Z,3.45
2022-10-04T21:48:12.849Z,3.17
2022-10-04T21:50:40.986Z,3.50
2022-10-04T21:53:09.332Z,3.63
2022-10-04T21:55:37.340Z,4.47
2022-10-04T21:58:05.261Z,3.60
2022-10-04T22:00:34.123Z,3.50
2022-10-04T22:03:04.465Z,4.00
2022-10-04T22:05:33.749Z,3.63
2022-10-04T22:08:02.634Z,3.25
2022-10-04T22:10:31.086Z,4.07
2022-10-04T22:12:59.003Z,3.70
2022-10-04T22:15:28.493Z,4.00
2022-10-04T22:17:57.152Z,3.60
2022-10-04T22:20:25.891Z,3.35
2022-10-04T22:22:57.478Z,3.65
2022-10-04T22:25:27.239Z,2.70
2022-10-04T22:27:55.465Z,3.17
2022-10-04T22:30:26.697Z,2.58
2022-10-04T22:32:57.029Z,3.20
2022-10-04T22:35:25.551Z,2.75
2022-10-04T22:37:55.075Z,3.35
2022-10-04T22:40:25.082Z,3.08
2022-10-04T22:42:54.639Z,3.05
2022-10-04T22:45:25.201Z,3.00
2022-10-04T22:47:54.375Z,3.70
2022-10-04T22:50:31.708Z,3.10
2022-10-04T22:53:05.568Z,2.75
2022-10-04T22:55:33.626Z,3.30
2022-10-04T22:58:02.834Z,2.83
2022-10-04T23:00:30.812Z,3.10
2022-10-04T23:02:58.930Z,3.20
2022-10-04T23:05:28.644Z,3.00
2022-10-04T23:07:56.650Z,3.22
2022-10-04T23:10:25.973Z,3.13
2022-10-04T23:12:53.992Z,2.50
2022-10-04T23:15:22.167Z,2.95
2022-10-04T23:17:55.456Z,2.80
2022-10-04T23:20:24.239Z,2.70
2022-10-04T23:22:54.397Z,2.40
2022-10-04T23:25:28.061Z,2.53
2022-10-04T23:27:59.413Z,1.88
2022-10-04T23:30:27.955Z,2.28
2022-10-04T23:33:02.079Z,2.30
2022-10-04T23:35:33.498Z,2.00
2022-10-04T23:38:03.673Z,1.88
2022-10-04T23:40:32.970Z,2.28
2022-10-04T23:43:03.684Z,2.10
2022-10-04T23:45:31.791Z,1.80
2022-10-04T23:48:01.371Z,1.48
2022-10-04T23:50:32.754Z,1.80
2022-10-04T23:53:04.555Z,2.00
2022-10-04T23:55:36.249Z,1.98
2022-10-04T23:58:13.548Z,2.10
